Weather Models
Both GFS & NAM
00z 06z 12z 18z
24hr Precip
00z 06z 12z 18z
36hr Simulated radar
00z 06z 12z 18z
SKEWT Soundings
00z 12z
Current Conditions (Updated 1:45am on 2/22/18)
Temperature
 58°
-1.52
61°  
58°  
0
10
20
30
40
50
60
70
80
90
100
Dew Point
41°
50°  
41°  
-20
-10
0
10
20
30
40
50
60
70
80
Wind Chill
57°
60°  
56°  
-20
-10
0
10
20
30
40
50
60
70
80
Wind Chill
Humidity
53%
67% 
53% 
0
10
20
30
40
50
60
70
80
90
100
Barometer
30.46
   Steady
30.46  
30.43  
28.00
28.30
28.60
28.90
29.20
29.50
29.80
30.10
30.40
30.70
31.00
Temperature
Dew Point
Humidity
Pressure
Wind
9mph
 NE
Daily Rain
.00
.05
.10
.15
.20
.25
.30
.35
.40
.45
.50
Rain Today
 0.00" 
Month Rain
0.00
1.00
2.00
3.00
4.00
5.00
6.00
7.00
8.00
9.00
10.00
Month Rain
 5.05" 
Year Rain
0.00
1.00
2.00
3.00
4.00
5.00
6.00
7.00
8.00
9.00
10.00
Year Rain
 6.80" 
Sun & Moon Data
Sunrise 6:42am
Sunset 5:42pm
Moonrise 10:39am
Moonset ---
Moon % 36%
Other Rain Data
Past Hour 0.00 Past 24 Hours 0.00
Past 3 Hours 0.00 Past 7 Days 1.05
Past 6 Hours 0.00
Cloud Height
4259


Current Front Map
Current Satellite map
7 Day Forecast
NWS Forecast for Philadelphia PA
National Weather Service Forecast for: Philadelphia PA
Issued by: National Weather Service Philadelphia, PA
Updated: 12:39 am EST Feb 22, 2018

Philadelphia
 
Overnight

Overnight: A chance of showers before 5am, then a chance of rain after 5am.  Cloudy, with a low around 46. North wind around 13 mph.  Chance of precipitation is 40%. New precipitation amounts of less than a tenth of an inch possible.
Chance
Showers
Thursday

Thursday: Rain.  High near 47. Northeast wind around 15 mph.  Chance of precipitation is 80%. New precipitation amounts between a quarter and half of an inch possible.
Rain
Thursday
Night
Thursday Night: Rain likely, mainly before 8pm.  Cloudy, with a low around 37. Northeast wind 7 to 15 mph.  Chance of precipitation is 70%. New precipitation amounts between a tenth and quarter of an inch possible.
Rain Likely
Friday

Friday: Rain likely.  Cloudy, with a high near 44. East wind 5 to 9 mph.  Chance of precipitation is 70%. New precipitation amounts between a tenth and quarter of an inch possible.
Rain Likely
Friday
Night
Friday Night: A chance of rain.  Cloudy, with a low around 42. Light and variable wind becoming south around 5 mph in the evening.  Chance of precipitation is 50%. New precipitation amounts of less than a tenth of an inch possible.
Chance Rain
Saturday

Saturday: A chance of rain.  Cloudy, with a high near 53. Chance of precipitation is 40%. New precipitation amounts between a tenth and quarter of an inch possible.
Chance Rain
Saturday
Night
Saturday Night: Rain likely.  Cloudy, with a low around 49. Chance of precipitation is 70%.
Rain Likely
Sunday

Sunday: Rain.  High near 62. Chance of precipitation is 80%.
Rain
Sunday
Night
Sunday Night: A chance of rain before 1am.  Mostly cloudy, with a low around 45. Chance of precipitation is 30%.
Chance Rain
Lo 46 °F Hi 47 °F Lo 37 °F Hi 44 °F Lo 42 °F Hi 53 °F Lo 49 °F Hi 62 °F Lo 45 °F

 

Overnight
 
A chance of showers before 5am, then a chance of rain after 5am. Cloudy, with a low around 46. North wind around 13 mph. Chance of precipitation is 40%. New precipitation amounts of less than a tenth of an inch possible.
Thursday
 
Rain. High near 47. Northeast wind around 15 mph. Chance of precipitation is 80%. New precipitation amounts between a quarter and half of an inch possible.
Thursday Night
 
Rain likely, mainly before 8pm. Cloudy, with a low around 37. Northeast wind 7 to 15 mph. Chance of precipitation is 70%. New precipitation amounts between a tenth and quarter of an inch possible.
Friday
 
Rain likely. Cloudy, with a high near 44. East wind 5 to 9 mph. Chance of precipitation is 70%. New precipitation amounts between a tenth and quarter of an inch possible.
Friday Night
 
A chance of rain. Cloudy, with a low around 42. Light and variable wind becoming south around 5 mph in the evening. Chance of precipitation is 50%. New precipitation amounts of less than a tenth of an inch possible.
Saturday
 
A chance of rain. Cloudy, with a high near 53. Chance of precipitation is 40%. New precipitation amounts between a tenth and quarter of an inch possible.
Saturday Night
 
Rain likely. Cloudy, with a low around 49. Chance of precipitation is 70%.
Sunday
 
Rain. High near 62. Chance of precipitation is 80%.
Sunday Night
 
A chance of rain before 1am. Mostly cloudy, with a low around 45. Chance of precipitation is 30%.
Monday
 
Mostly sunny, with a high near 53.
Monday Night
 
Partly cloudy, with a low around 37.
Tuesday
 
Mostly sunny, with a high near 51.
Tuesday Night
 
Mostly clear, with a low around 38.
Wednesday
 
Sunny, with a high near 52.

 

Forecast from NOAA-NWS for Philadelphia PA.

Area Weather Current Conditions
Nearby METAR Reports

KPHL - Philadelphia, Pennsylvania
Updated: Thu, 22-Feb-2018 12:54am EST
Overcast
Overcast
 Wind from N
Wind: N 14 mph , 22 km/h
Temperature: 57°F , 14°C
Dew Point: 46°F , 8°C
Humidity: 67%
Barometer: 30.43 inHg , 1030.5 hPa
Clouds: Overcast
Visibility: 10 miles , 16 km
Cloud details: Mostly Cloudy 3700 ft
Mostly Cloudy 7000 ft
Overcast 11000 ft
2018/02/22 05:54 KPHL 220554Z 36012KT 10SM BKN037 BKN070 OVC110 14/08 A3043 RMK AO2 SLP303 60001 T01390078 10222 20139 51024
KMPO - Mt. Pocono, Pennsylvania
Updated: Wed, 21-Feb-2018 7:53pm EST
NOT Current
Overcast
Overcast
 Wind from NW
Wind: NW 18 mph , 30 km/h, Gust: 29 mph , 46 km/h
Temperature: 46°F , 8°C
Wind Chill: 39°F , 4°C
Dew Point: 43°F , 6°C
Humidity: 87%
Barometer: 30.38 inHg , 1028.8 hPa
Clouds: Overcast
Visibility: 10 miles , 16 km
Cloud details: Few Clouds 1100 ft
Mostly Cloudy 6500 ft
Overcast 11000 ft
2018/02/22 00:53 KMPO 220053Z AUTO 32016G25KT 10SM FEW011 BKN065 OVC110 08/06 A3038 RMK AO2 PK WND 32028/0005 SLP295 T00780061
 
KACY - Atlantic City, New Jersey
Updated: Thu, 22-Feb-2018 12:54am EST
Overcast
Overcast
 Wind from N
Wind: N 8 mph , 13 km/h
Temperature: 63°F , 17°C
Dew Point: 59°F , 15°C
Humidity: 88%
Barometer: 30.40 inHg , 1029.5 hPa
Clouds: Overcast
Visibility: 10 miles , 16 km
Cloud details: Overcast 2100 ft
2018/02/22 05:54 KACY 220554Z 01007KT 10SM OVC021 17/15 A3040 RMK AO2 SLP293 T01720150 10172 20128 53022 $
KMIV - Millville, New Jersey
Updated: Thu, 22-Feb-2018 1:34am EST
Mostly Cloudy
Mostly Cloudy
 Wind from N
Wind: N 9 mph , 15 km/h
Temperature: 59°F , 15°C
Dew Point: 50°F , 10°C
Humidity: 72%
Barometer: 30.42 inHg , 1030.1 hPa
Clouds: Mostly Cloudy
Visibility: 10 miles , 16 km
Cloud details: Mostly Cloudy 1800 ft
2018/02/22 06:34 KMIV 220634Z AUTO 36008KT 10SM BKN018 15/10 A3042 RMK AO2 T01500100
 
KWWD - Wildwood, New Jersey
Updated: Thu, 22-Feb-2018 12:55am EST
Few Clouds
Few Clouds
 Wind from WNW
Wind: WNW 7 mph , 11 km/h
Temperature: 63°F , 17°C
Dew Point: 59°F , 15°C
Humidity: 88%
Barometer: 30.39 inHg , 1029.1 hPa
Clouds: Few Clouds
Visibility: 10 miles , 16 km
Cloud details: Few Clouds 9500 ft
2018/02/22 05:55 KWWD 220555Z AUTO 29006KT 10SM FEW095 17/15 A3039 RMK AO2 SLP294 T01670150 10183 20150 53012
KDOV - Dover Afb, Delaware
Updated: Thu, 22-Feb-2018 12:56am EST
Mostly Cloudy
Mostly Cloudy
 Wind from NNW
Wind: NNW 10 mph , 17 km/h
Temperature: 61°F , 16°C
Dew Point: 59°F , 15°C
Humidity: 94%
Barometer: 30.39 inHg , 1029.1 hPa
Clouds: Mostly Cloudy
Visibility: 10 miles , 16 km
Cloud details: Mostly Cloudy 2200 ft
2018/02/22 05:56 KDOV 220556Z AUTO 33009KT 10SM BKN022 16/15 A3039 RMK AO2 SLP294 T01580148 10211 20158 52019 $
Severe Weather Map
Recent Forum Post
[Philadelphia] 2017 -2018 Winter snow forecast by JC December 06, 2017, 02:00:35 AM
[Philadelphia] Request for Philly Snow Data by JC February 14, 2017, 08:42:21 PM
[Philadelphia] 2016 -2017 Winter snow forecast by JC December 01, 2016, 04:56:31 AM
[Philadelphia] Winter forecast 2016-2017 by xyonist November 30, 2016, 01:14:08 PM
[Philadelphia] 102.7 last Saturday by JC August 20, 2016, 03:26:22 AM
[Philadelphia] 2015 -2016 Winter snow forecast by JC April 19, 2016, 09:42:40 AM
[Philadelphia] Latest Models on Weekend Storm (Photos) by JC January 23, 2016, 12:01:03 PM
[Philadelphia] Possible large snow storm for end of week ? by JC January 21, 2016, 09:17:47 AM